Time;durP1;ratioP1;P1;durP2;ratioP2;P2;SDS_P1;SDS_P2;PMS_P1;PMS_P2;Temp;Humidity;BMP_temperature;BMP_pressure;BME280_temperature;BME280_humidity;BME280_pressure;Samples;Min_cycle;Max_cycle;Signal;HPM_P1;HPM_P2
2023/03/01 00:01:41;;;;;;;0.00;0.00;;;0.60;99.90;;;;;;5021681;28;20807;-81
2023/03/01 00:04:07;;;;;;;0.00;0.00;;;0.60;99.90;;;;;;5022455;28;20029;-81
2023/03/01 00:06:34;;;;;;;0.00;0.00;;;1.10;99.90;;;;;;5006126;28;20025;-81
2023/03/01 00:09:02;;;;;;;0.00;0.00;;;0.80;99.90;;;;;;5005217;28;20036;-81
2023/03/01 00:11:32;;;;;;;0.50;0.22;;;0.60;99.90;;;;;;5002483;28;20067;-81
2023/03/01 00:14:04;;;;;;;0.28;0.22;;;0.60;99.90;;;;;;5007169;28;20017;-82
2023/03/01 00:16:39;;;;;;;0.00;0.00;;;0.50;99.90;;;;;;5017513;28;20742;-81
2023/03/01 00:19:13;;;;;;;0.10;0.10;;;0.50;99.90;;;;;;5004849;28;20075;-81
2023/03/01 00:21:38;;;;;;;0.00;0.00;;;0.50;99.90;;;;;;5022285;28;20021;-81
2023/03/01 00:24:12;;;;;;;0.00;0.00;;;0.50;99.90;;;;;;5000245;28;20722;-81
2023/03/01 00:26:40;;;;;;;0.00;0.00;;;0.50;99.90;;;;;;5002753;28;20108;-80
2023/03/01 00:29:11;;;;;;;0.00;0.00;;;0.70;99.90;;;;;;5004541;28;20021;-80
2023/03/01 00:31:39;;;;;;;0.00;0.00;;;0.50;99.90;;;;;;5004229;28;20033;-81
2023/03/01 00:34:05;;;;;;;0.00;0.00;;;0.50;99.90;;;;;;5022115;28;20025;-81
2023/03/01 00:36:35;;;;;;;0.00;0.00;;;0.50;99.90;;;;;;5021436;28;20426;-81
2023/03/01 00:39:05;;;;;;;0.00;0.00;;;0.40;99.90;;;;;;5008789;28;20025;-81
2023/03/01 00:41:31;;;;;;;0.00;0.00;;;0.40;99.90;;;;;;5008178;28;20021;-81
2023/03/01 00:43:56;;;;;;;0.00;0.00;;;0.50;99.90;;;;;;5023361;28;20021;-81
2023/03/01 00:46:26;;;;;;;0.00;0.00;;;0.30;99.90;;;;;;5028680;28;20025;-81
2023/03/01 00:48:52;;;;;;;0.00;0.00;;;0.30;99.90;;;;;;5029768;28;20519;-81
2023/03/01 00:51:23;;;;;;;0.00;0.00;;;0.30;99.90;;;;;;5009192;28;20693;-81
2023/03/01 00:53:56;;;;;;;0.10;0.10;;;0.20;99.90;;;;;;5004445;28;20315;-82
2023/03/01 00:56:23;;;;;;;0.00;0.00;;;0.20;99.90;;;;;;5026056;28;20028;-80
2023/03/01 00:58:50;;;;;;;0.00;0.00;;;0.20;99.90;;;;;;5007742;28;20110;-81
2023/03/01 01:01:20;;;;;;;0.00;0.00;;;0.20;99.90;;;;;;5025705;28;20489;-81
2023/03/01 01:03:51;;;;;;;0.00;0.00;;;0.10;99.90;;;;;;5008377;28;20017;-81
2023/03/01 01:06:23;;;;;;;0.00;0.00;;;0.10;99.90;;;;;;5002545;28;20112;-82
2023/03/01 01:08:52;;;;;;;0.00;0.00;;;0.10;99.90;;;;;;5008225;28;20037;-81
2023/03/01 01:11:22;;;;;;;0.00;0.00;;;0.10;99.90;;;;;;5020882;28;20528;-81
2023/03/01 01:13:51;;;;;;;0.00;0.00;;;0.10;99.90;;;;;;5024985;28;20032;-81
2023/03/01 01:16:18;;;;;;;0.00;0.00;;;0.10;99.90;;;;;;5007770;28;20779;-81
2023/03/01 01:18:44;;;;;;;0.17;0.17;;;0.10;99.90;;;;;;5024690;28;20379;-81
2023/03/01 01:21:15;;;;;;;0.00;0.00;;;0.10;99.90;;;;;;5007450;28;20095;-80
2023/03/01 01:23:46;;;;;;;0.00;0.00;;;0.10;99.90;;;;;;5008149;28;20033;-81
2023/03/01 01:26:17;;;;;;;0.00;0.00;;;0.20;99.90;;;;;;5007970;28;20056;-81
2023/03/01 01:28:46;;;;;;;0.00;0.00;;;0.50;99.90;;;;;;5025062;28;20028;-80
2023/03/01 01:31:13;;;;;;;0.00;0.00;;;0.80;99.90;;;;;;5024985;28;20048;-81
2023/03/01 01:33:39;;;;;;;0.00;0.00;;;0.80;99.90;;;;;;5003293;28;20506;-81
2023/03/01 01:36:06;;;;;;;0.00;0.00;;;0.40;99.90;;;;;;5007251;28;20049;-80
2023/03/01 01:38:44;;;;;;;0.00;0.00;;;0.50;99.90;;;;;;5007451;28;20120;-81
2023/03/01 01:41:12;;;;;;;0.00;0.00;;;0.60;99.90;;;;;;5024924;28;20056;-81
2023/03/01 01:44:02;;;;;;;5.38;0.55;;;0.70;99.90;;;;;;5008197;28;20542;-81
2023/03/01 01:46:51;;;;;;;0.17;0.17;;;0.80;99.90;;;;;;4996844;28;20034;-81
2023/03/01 01:49:45;;;;;;;0.00;0.00;;;0.90;99.90;;;;;;4999942;28;20258;-81
2023/03/01 01:52:26;;;;;;;0.00;0.00;;;1.00;99.90;;;;;;4997293;28;21438;-81
2023/03/01 01:55:12;;;;;;;0.00;0.00;;;1.10;99.90;;;;;;5003720;28;20100;-81
2023/03/01 01:57:49;;;;;;;0.15;0.10;;;1.10;99.90;;;;;;5007398;28;20025;-81
2023/03/01 02:00:22;;;;;;;0.00;0.00;;;1.20;99.90;;;;;;5008622;28;20021;-81
2023/03/01 02:02:57;;;;;;;0.90;0.90;;;1.20;99.90;;;;;;5002802;28;20063;-81
2023/03/01 02:05:53;;;;;;;0.00;0.00;;;1.30;99.90;;;;;;5006282;28;20435;-81
2023/03/01 02:08:20;;;;;;;0.00;0.00;;;1.30;99.90;;;;;;4990082;28;20037;-81
2023/03/01 02:10:52;;;;;;;0.00;0.00;;;1.30;99.90;;;;;;5007372;28;20052;-81
2023/03/01 02:13:19;;;;;;;0.00;0.00;;;1.30;99.90;;;;;;5004193;28;20632;-81
2023/03/01 02:15:46;;;;;;;0.00;0.00;;;1.40;99.90;;;;;;5008601;28;20100;-81
2023/03/01 02:18:16;;;;;;;0.00;0.00;;;1.40;99.90;;;;;;5007233;28;20029;-81
2023/03/01 02:21:04;;;;;;;0.00;0.00;;;2.00;99.90;;;;;;5002542;28;20029;-81
2023/03/01 02:23:32;;;;;;;0.00;0.00;;;1.50;99.90;;;;;;5025305;28;20028;-81
2023/03/01 02:26:40;;;;;;;0.00;0.00;;;1.50;99.90;;;;;;5005448;28;20021;-81
2023/03/01 02:29:07;;;;;;;0.00;0.00;;;1.50;99.90;;;;;;5006430;28;20093;-81
2023/03/01 02:31:43;;;;;;;0.00;0.00;;;1.50;99.90;;;;;;5019372;28;20076;-81
2023/03/01 02:34:21;;;;;;;0.00;0.00;;;1.50;99.90;;;;;;5007062;28;20095;-81
2023/03/01 02:36:52;;;;;;;0.00;0.00;;;1.50;99.90;;;;;;5001671;28;20116;-81
2023/03/01 02:39:42;;;;;;;0.00;0.00;;;1.50;99.90;;;;;;5005889;28;20370;-81
2023/03/01 02:42:23;;;;;;;0.00;0.00;;;1.50;99.90;;;;;;5022612;28;20017;-81
2023/03/01 02:44:50;;;;;;;0.00;0.00;;;1.50;99.90;;;;;;5004685;28;20017;-81
2023/03/01 02:47:16;;;;;;;5.70;1.27;;;1.50;99.90;;;;;;5019320;28;20104;-81
2023/03/01 02:49:42;;;;;;;0.00;0.00;;;1.50;99.90;;;;;;5006616;28;20108;-81
2023/03/01 02:52:29;;;;;;;0.13;0.13;;;1.70;99.90;;;;;;5006282;28;20565;-81
2023/03/01 02:54:59;;;;;;;0.00;0.00;;;1.40;99.90;;;;;;5006359;28;20022;-81
2023/03/01 02:57:27;;;;;;;0.17;0.17;;;1.30;99.90;;;;;;5007389;28;20021;-81
2023/03/01 03:00:06;;;;;;;0.00;0.00;;;1.30;99.90;;;;;;5005785;28;20470;-82
2023/03/01 03:02:38;;;;;;;0.00;0.00;;;1.40;99.90;;;;;;5003386;28;20096;-81
2023/03/01 03:05:24;;;;;;;0.28;0.13;;;1.30;99.90;;;;;;5006539;28;20489;-82
2023/03/01 03:07:53;;;;;;;0.20;0.20;;;1.40;99.90;;;;;;5023206;28;20076;-81
2023/03/01 03:10:23;;;;;;;0.00;0.00;;;1.50;99.90;;;;;;5004518;28;20033;-81
2023/03/01 03:13:04;;;;;;;0.00;0.00;;;1.50;99.90;;;;;;5022220;28;21522;-81
2023/03/01 03:15:30;;;;;;;0.00;0.00;;;1.50;99.90;;;;;;5024085;28;20018;-82
2023/03/01 03:17:57;;;;;;;0.28;0.28;;;1.50;99.90;;;;;;5020219;28;20053;-81
2023/03/01 03:20:26;;;;;;;0.00;0.00;;;1.50;99.90;;;;;;5024016;28;20100;-81
2023/03/01 03:22:58;;;;;;;0.88;0.25;;;1.40;99.90;;;;;;5005454;28;20025;-81
2023/03/01 03:25:27;;;;;;;0.00;0.00;;;1.40;99.90;;;;;;5004477;28;20029;-81
2023/03/01 03:27:56;;;;;;;0.45;0.22;;;1.50;99.90;;;;;;5021219;28;20027;-81
2023/03/01 03:30:31;;;;;;;0.00;0.00;;;1.50;99.90;;;;;;5005799;28;20072;-81
2023/03/01 03:32:59;;;;;;;0.32;0.30;;;1.50;99.90;;;;;;5003142;28;20116;-80
2023/03/01 03:35:30;;;;;;;0.00;0.00;;;1.60;99.90;;;;;;5000378;28;20113;-81
2023/03/01 03:38:06;;;;;;;0.00;0.00;;;1.70;99.90;;;;;;5006399;28;20029;-81
2023/03/01 03:40:51;;;;;;;0.00;0.00;;;1.70;99.90;;;;;;5003239;28;20022;-81
2023/03/01 03:43:30;;;;;;;0.00;0.00;;;1.80;99.90;;;;;;5023591;28;20114;-81
2023/03/01 03:45:59;;;;;;;0.08;0.05;;;1.70;99.90;;;;;;5006602;28;20018;-81
2023/03/01 03:48:32;;;;;;;0.00;0.00;;;2.00;99.90;;;;;;5000663;28;20017;-81
2023/03/01 03:51:18;;;;;;;0.38;0.38;;;1.50;99.90;;;;;;5022623;28;20025;-82
2023/03/01 03:53:49;;;;;;;0.00;0.00;;;1.50;99.90;;;;;;5004863;28;20055;-81
2023/03/01 03:56:15;;;;;;;0.00;0.00;;;1.60;99.90;;;;;;5004868;28;20036;-81
2023/03/01 03:58:49;;;;;;;0.00;0.00;;;1.60;99.90;;;;;;5019633;28;20084;-81
2023/03/01 04:01:21;;;;;;;0.03;0.03;;;1.50;99.90;;;;;;5023608;28;20355;-82
2023/03/01 04:03:48;;;;;;;0.00;0.00;;;1.50;99.90;;;;;;5004752;28;20039;-81
2023/03/01 04:06:14;;;;;;;0.00;0.00;;;1.60;99.90;;;;;;5023012;28;20040;-82
2023/03/01 04:08:42;;;;;;;0.00;0.00;;;2.00;99.90;;;;;;5004212;28;20867;-82
2023/03/01 04:11:27;;;;;;;0.00;0.00;;;1.70;99.90;;;;;;5004878;28;20037;-82
2023/03/01 04:13:55;;;;;;;0.47;0.47;;;1.70;99.90;;;;;;5005007;28;20438;-81
2023/03/01 04:16:20;;;;;;;0.00;0.00;;;1.70;99.90;;;;;;5023924;28;20020;-81
2023/03/01 04:18:49;;;;;;;0.83;0.53;;;1.80;99.90;;;;;;5001782;28;20355;-81
2023/03/01 04:21:20;;;;;;;0.25;0.17;;;1.80;99.90;;;;;;5003603;28;20028;-81
2023/03/01 04:24:12;;;;;;;0.10;0.10;;;1.80;99.90;;;;;;5005706;28;20116;-81
2023/03/01 04:26:39;;;;;;;0.00;0.00;;;1.80;99.90;;;;;;5000576;28;20079;-81
2023/03/01 04:29:11;;;;;;;0.00;0.00;;;1.70;99.90;;;;;;5004993;28;20036;-81
2023/03/01 04:31:48;;;;;;;0.00;0.00;;;1.90;99.90;;;;;;5005377;28;20029;-81
2023/03/01 04:34:14;;;;;;;0.00;0.00;;;1.80;99.90;;;;;;5004464;28;20041;-81
2023/03/01 04:36:40;;;;;;;0.00;0.00;;;1.70;99.90;;;;;;5004163;28;20041;-81
2023/03/01 04:39:11;;;;;;;0.30;0.30;;;1.70;99.90;;;;;;5018518;28;20079;-81
2023/03/01 04:41:43;;;;;;;0.00;0.00;;;2.00;99.90;;;;;;5005610;28;20496;-80
2023/03/01 04:44:13;;;;;;;0.00;0.00;;;1.90;99.90;;;;;;5000349;28;20025;-81
2023/03/01 04:46:40;;;;;;;0.00;0.00;;;1.40;99.90;;;;;;5022516;28;20026;-81
2023/03/01 04:49:06;;;;;;;0.00;0.00;;;1.40;99.90;;;;;;5005611;28;20032;-81
2023/03/01 04:51:44;;;;;;;0.00;0.00;;;1.40;99.90;;;;;;5026515;28;20017;-81
2023/03/01 04:54:10;;;;;;;0.00;0.00;;;1.40;99.90;;;;;;5003252;28;20124;-81
2023/03/01 04:56:41;;;;;;;0.00;0.00;;;1.30;99.90;;;;;;5004502;28;20527;-81
2023/03/01 04:59:09;;;;;;;0.00;0.00;;;1.30;99.90;;;;;;4999806;28;20559;-81
2023/03/01 05:01:36;;;;;;;0.00;0.00;;;1.40;99.90;;;;;;5020960;28;20026;-81
2023/03/01 05:04:05;;;;;;;0.00;0.00;;;1.40;99.90;;;;;;5003612;28;20025;-81
2023/03/01 05:06:32;;;;;;;0.00;0.00;;;1.50;99.90;;;;;;5023238;28;20021;-80
2023/03/01 05:09:01;;;;;;;0.00;0.00;;;1.40;99.90;;;;;;5002448;28;20025;-81
2023/03/01 05:11:35;;;;;;;0.00;0.00;;;1.50;99.90;;;;;;5004592;28;20478;-81
2023/03/01 05:14:03;;;;;;;0.00;0.00;;;2.00;99.90;;;;;;5002421;28;20478;-81
2023/03/01 05:16:32;;;;;;;0.00;0.00;;;1.60;99.90;;;;;;5002337;28;20028;-80
2023/03/01 05:18:59;;;;;;;0.00;0.00;;;1.80;99.90;;;;;;5000552;28;20379;-82
2023/03/01 05:21:26;;;;;;;0.00;0.00;;;1.60;99.90;;;;;;5003375;28;20052;-81
2023/03/01 05:23:59;;;;;;;;;;;1.60;99.90;;;;;;5023947;28;20029;-80
2023/03/01 05:26:28;;;;;;;0.00;0.00;;;1.60;99.90;;;;;;5008265;28;19905;-81
2023/03/01 05:28:58;;;;;;;0.00;0.00;;;1.60;99.90;;;;;;5007604;28;20025;-81
2023/03/01 05:31:24;;;;;;;0.00;0.00;;;2.20;99.90;;;;;;5006900;28;20156;-81
2023/03/01 05:33:50;;;;;;;0.00;0.00;;;1.60;99.90;;;;;;5025402;28;20479;-81
2023/03/01 05:36:18;;;;;;;0.30;0.30;;;1.60;99.90;;;;;;5007470;28;20123;-82
2023/03/01 05:38:44;;;;;;;0.00;0.00;;;1.70;99.90;;;;;;5005955;28;20022;-83
2023/03/01 05:41:16;;;;;;;0.00;0.00;;;1.60;99.90;;;;;;5025492;28;20862;-82
2023/03/01 05:43:44;;;;;;;0.28;0.28;;;1.60;99.90;;;;;;5007854;28;20044;-83
2023/03/01 05:46:13;;;;;;;0.00;0.00;;;1.70;99.90;;;;;;5008375;28;20021;-83
2023/03/01 05:48:45;;;;;;;0.00;0.00;;;1.80;99.90;;;;;;5004579;28;20033;-83
2023/03/01 05:51:11;;;;;;;0.00;0.00;;;1.80;99.90;;;;;;5007225;28;21451;-83
2023/03/01 05:53:47;;;;;;;0.00;0.00;;;1.70;99.90;;;;;;5030366;28;20014;-83
2023/03/01 05:56:14;;;;;;;0.08;0.08;;;1.70;99.90;;;;;;5007048;28;20297;-81
2023/03/01 05:58:41;;;;;;;;;;;1.60;99.90;;;;;;5009398;28;20520;-82
2023/03/01 06:01:13;;;;;;;0.00;0.00;;;1.50;99.90;;;;;;5006703;28;19911;-82
2023/03/01 06:03:39;;;;;;;0.00;0.00;;;1.40;99.90;;;;;;5008099;28;20072;-81
2023/03/01 06:06:05;;;;;;;0.00;0.00;;;1.30;99.90;;;;;;5025569;28;20407;-81
2023/03/01 06:08:37;;;;;;;0.00;0.00;;;1.40;99.90;;;;;;5024977;28;20036;-80
2023/03/01 06:11:03;;;;;;;0.00;0.00;;;1.50;99.90;;;;;;5025189;28;20120;-81
2023/03/01 06:13:34;;;;;;;0.00;0.00;;;1.50;99.90;;;;;;5012632;28;20678;-82
2023/03/01 06:16:01;;;;;;;0.75;0.52;;;1.70;99.90;;;;;;5003157;28;20109;-80
2023/03/01 06:18:26;;;;;;;0.00;0.00;;;2.00;99.90;;;;;;5004861;28;20040;-79
2023/03/01 06:20:57;;;;;;;0.00;0.00;;;1.60;99.90;;;;;;5024357;28;20050;-79
2023/03/01 06:23:27;;;;;;;0.00;0.00;;;1.60;99.90;;;;;;5006713;28;20022;-79
2023/03/01 06:26:05;;;;;;;0.00;0.00;;;1.80;99.90;;;;;;5024081;28;20072;-79
2023/03/01 06:28:34;;;;;;;0.00;0.00;;;1.80;99.90;;;;;;5004742;28;20418;-79
2023/03/01 06:31:00;;;;;;;0.20;0.20;;;1.80;99.90;;;;;;5006914;28;20018;-79
2023/03/01 06:33:27;;;;;;;0.00;0.00;;;1.90;99.90;;;;;;5020352;28;20032;-79
2023/03/01 06:35:59;;;;;;;0.00;0.00;;;1.70;99.90;;;;;;5022400;28;20030;-79
2023/03/01 06:38:30;;;;;;;0.00;0.00;;;1.90;99.90;;;;;;5025165;28;20022;-79
2023/03/01 06:41:01;;;;;;;0.00;0.00;;;1.80;99.90;;;;;;5021088;28;20087;-79
2023/03/01 06:43:27;;;;;;;0.00;0.00;;;1.90;99.90;;;;;;5004268;28;20025;-79
2023/03/01 06:45:55;;;;;;;0.00;0.00;;;1.80;99.90;;;;;;5002784;28;20021;-81
2023/03/01 06:48:22;;;;;;;0.57;0.57;;;2.20;99.90;;;;;;5024382;28;20105;-79
2023/03/01 06:50:59;;;;;;;0.00;0.00;;;2.10;99.90;;;;;;5022010;28;20535;-80
2023/03/01 06:53:29;;;;;;;0.00;0.00;;;1.80;99.90;;;;;;5023642;28;20017;-79
2023/03/01 06:56:00;;;;;;;0.00;0.00;;;1.90;99.90;;;;;;5022261;28;20041;-79
2023/03/01 06:58:26;;;;;;;1.33;0.50;;;1.80;99.90;;;;;;5003740;28;20021;-79
2023/03/01 07:00:51;;;;;;;0.05;0.05;;;1.90;99.90;;;;;;5005065;28;20068;-81
2023/03/01 07:03:18;;;;;;;0.00;0.00;;;2.40;99.90;;;;;;5024150;28;20522;-79
2023/03/01 07:05:44;;;;;;;0.00;0.00;;;2.10;99.90;;;;;;5023932;28;20025;-79
2023/03/01 07:08:10;;;;;;;0.00;0.00;;;1.80;99.90;;;;;;5021935;28;20037;-79
2023/03/01 07:10:36;;;;;;;0.00;0.00;;;1.80;99.90;;;;;;5020616;28;20076;-80
2023/03/01 07:13:02;;;;;;;0.00;0.00;;;1.90;99.90;;;;;;5017154;28;20029;-79
2023/03/01 07:15:27;;;;;;;0.00;0.00;;;1.90;99.90;;;;;;5022467;28;20079;-79
2023/03/01 07:17:55;;;;;;;0.00;0.00;;;1.90;99.90;;;;;;5004710;28;20524;-79
2023/03/01 07:20:25;;;;;;;0.00;0.00;;;2.00;99.90;;;;;;5021546;28;20017;-79
2023/03/01 07:22:56;;;;;;;0.00;0.00;;;2.10;99.90;;;;;;5003079;28;20497;-79
2023/03/01 07:25:22;;;;;;;0.00;0.00;;;2.20;99.90;;;;;;5004832;28;20052;-79
2023/03/01 07:27:58;;;;;;;0.10;0.10;;;2.30;99.90;;;;;;5022007;28;20059;-79
2023/03/01 07:30:27;;;;;;;0.00;0.00;;;2.40;99.90;;;;;;5000190;28;20037;-79
2023/03/01 07:32:53;;;;;;;0.00;0.00;;;2.50;99.90;;;;;;5008189;28;20028;-78
2023/03/01 07:35:20;;;;;;;0.00;0.00;;;2.50;99.90;;;;;;5017128;28;20033;-79
2023/03/01 07:37:45;;;;;;;0.00;0.00;;;2.60;99.90;;;;;;5004146;28;20025;-80
2023/03/01 07:40:20;;;;;;;0.00;0.00;;;2.90;99.90;;;;;;5005253;28;20025;-79
2023/03/01 07:42:46;;;;;;;0.00;0.00;;;3.20;99.90;;;;;;5004257;28;20032;-81
2023/03/01 07:45:14;;;;;;;0.30;0.20;;;3.20;99.90;;;;;;5005064;28;20044;-78
2023/03/01 07:47:40;;;;;;;0.00;0.00;;;3.40;99.90;;;;;;5005171;28;20076;-79
2023/03/01 07:50:07;;;;;;;0.00;0.00;;;3.40;99.90;;;;;;5005292;28;20026;-78
2023/03/01 07:52:32;;;;;;;0.98;0.63;;;3.50;99.90;;;;;;5000634;28;20367;-79
2023/03/01 07:54:58;;;;;;;0.00;0.00;;;3.70;99.90;;;;;;5022124;28;20025;-79
2023/03/01 07:57:24;;;;;;;0.00;0.00;;;3.60;99.90;;;;;;5003308;28;20678;-79
2023/03/01 07:59:49;;;;;;;0.03;0.03;;;3.40;99.90;;;;;;5021761;28;20028;-79
2023/03/01 08:02:20;;;;;;;0.00;0.00;;;3.40;99.90;;;;;;5002931;28;20025;-79
2023/03/01 08:04:47;;;;;;;0.47;0.30;;;3.30;99.90;;;;;;5004524;28;20040;-79
2023/03/01 08:07:14;;;;;;;;;;;3.40;99.90;;;;;;5021704;28;20032;-80
2023/03/01 08:09:41;;;;;;;0.00;0.00;;;3.50;99.90;;;;;;5003245;28;19913;-79
2023/03/01 08:12:09;;;;;;;0.00;0.00;;;4.30;99.90;;;;;;5017573;28;20548;-79
2023/03/01 08:14:34;;;;;;;0.00;0.00;;;4.10;99.90;;;;;;5006317;28;20013;-79
2023/03/01 08:17:07;;;;;;;0.00;0.00;;;4.20;99.90;;;;;;5022886;28;20017;-79
2023/03/01 08:19:34;;;;;;;0.03;0.03;;;4.40;99.90;;;;;;5004786;28;20021;-79
2023/03/01 08:22:02;;;;;;;0.00;0.00;;;4.60;99.90;;;;;;5026897;28;20036;-79
2023/03/01 08:24:28;;;;;;;0.28;0.28;;;4.80;99.90;;;;;;4999723;28;20022;-79
2023/03/01 08:27:02;;;;;;;0.00;0.00;;;4.60;99.90;;;;;;5022898;28;20119;-79
2023/03/01 08:29:33;;;;;;;0.10;0.10;;;5.00;99.90;;;;;;5005824;28;20112;-79
2023/03/01 08:32:05;;;;;;;0.38;0.28;;;5.20;99.90;;;;;;5001988;28;20029;-80
2023/03/01 08:34:31;;;;;;;1.60;0.63;;;5.30;99.90;;;;;;5002523;28;20029;-79
2023/03/01 08:37:02;;;;;;;0.00;0.00;;;5.50;99.90;;;;;;5001666;28;20013;-79
2023/03/01 08:39:28;;;;;;;0.00;0.00;;;5.80;99.90;;;;;;5003224;28;20028;-79
2023/03/01 08:42:02;;;;;;;0.00;0.00;;;6.00;99.90;;;;;;5020896;28;20523;-79
2023/03/01 08:44:37;;;;;;;0.00;0.00;;;6.30;99.50;;;;;;5020296;28;20025;-79
2023/03/01 08:47:04;;;;;;;0.00;0.00;;;7.00;98.30;;;;;;5004494;28;20049;-79
2023/03/01 08:49:38;;;;;;;0.00;0.00;;;8.70;96.20;;;;;;5005323;28;20048;-79
2023/03/01 08:52:14;;;;;;;0.03;0.03;;;11.30;86.10;;;;;;5021143;28;20478;-80
2023/03/01 08:54:41;;;;;;;0.00;0.00;;;14.00;69.40;;;;;;5017181;28;20021;-79
2023/03/01 08:57:22;;;;;;;;;;;15.70;60.90;;;;;;5023132;28;20025;-79
2023/03/01 08:59:48;;;;;;;2.35;1.20;;;14.60;57.00;;;;;;5006332;28;19905;-79
2023/03/01 09:02:16;;;;;;;0.57;0.20;;;12.90;59.00;;;;;;5008766;28;20916;-79
2023/03/01 09:04:44;;;;;;;0.10;0.10;;;13.00;62.30;;;;;;5009108;28;20032;-79
2023/03/01 09:07:10;;;;;;;0.20;0.20;;;15.50;58.40;;;;;;5004036;28;20017;-79
2023/03/01 09:09:38;;;;;;;0.00;0.00;;;15.50;54.20;;;;;;5016650;28;20030;-85
2023/03/01 09:12:05;;;;;;;0.63;0.63;;;13.70;56.10;;;;;;5028985;28;20061;-84
2023/03/01 09:14:38;;;;;;;0.00;0.00;;;13.50;58.60;;;;;;5042120;28;20013;-84
2023/03/01 09:17:16;;;;;;;0.00;0.00;;;14.10;58.90;;;;;;5014447;28;20064;-82
2023/03/01 09:19:44;;;;;;;0.00;0.00;;;14.60;57.20;;;;;;5027525;28;20047;-82
2023/03/01 09:22:10;;;;;;;0.35;0.35;;;13.80;56.50;;;;;;5026849;28;20021;-83
2023/03/01 09:24:36;;;;;;;0.20;0.20;;;13.70;57.30;;;;;;5009914;28;20032;-83
2023/03/01 09:27:08;;;;;;;;;;;12.80;58.00;;;;;;5010413;28;20314;-83
2023/03/01 09:29:35;;;;;;;0.00;0.00;;;13.20;58.10;;;;;;5007641;28;19913;-83
2023/03/01 09:32:03;;;;;;;0.00;0.00;;;13.80;58.20;;;;;;5008058;28;20022;-83
2023/03/01 09:34:29;;;;;;;0.00;0.00;;;14.40;55.90;;;;;;5008579;28;20720;-83
2023/03/01 09:36:58;;;;;;;0.10;0.10;;;13.90;55.70;;;;;;5005221;28;20706;-84
2023/03/01 09:39:26;;;;;;;0.00;0.00;;;16.10;54.50;;;;;;5009433;28;20966;-82
2023/03/01 09:42:02;;;;;;;0.20;0.20;;;16.60;51.60;;;;;;5007018;28;20022;-82
2023/03/01 09:44:55;;;;;;;0.28;0.20;;;15.40;52.20;;;;;;5005384;28;20072;-82
2023/03/01 09:47:28;;;;;;;0.40;0.40;;;12.70;56.30;;;;;;5007250;28;20108;-81
2023/03/01 09:50:18;;;;;;;0.15;0.15;;;11.30;59.10;;;;;;5008244;28;20025;-82
2023/03/01 09:53:01;;;;;;;0.10;0.10;;;11.20;61.70;;;;;;5007001;28;20029;-81
2023/03/01 09:56:00;;;;;;;0.00;0.00;;;10.70;62.00;;;;;;5004072;28;20021;-81
2023/03/01 09:58:47;;;;;;;0.00;0.00;;;10.10;64.10;;;;;;4969638;28;20082;-82
2023/03/01 10:01:31;;;;;;;0.30;0.30;;;9.60;65.90;;;;;;4968013;28;20110;-82
2023/03/01 10:04:42;;;;;;;0.00;0.00;;;9.00;69.00;;;;;;5001757;28;20483;-81
2023/03/01 10:07:11;;;;;;;0.15;0.13;;;8.70;70.70;;;;;;5025264;28;20080;-83
2023/03/01 10:09:43;;;;;;;0.00;0.00;;;8.90;70.10;;;;;;5007668;28;20037;-82
2023/03/01 10:12:15;;;;;;;0.00;0.00;;;8.90;70.80;;;;;;5007170;28;20053;-81
2023/03/01 10:14:57;;;;;;;2.63;0.43;;;9.00;71.30;;;;;;5003347;28;20967;-80
2023/03/01 10:18:07;;;;;;;0.08;0.08;;;8.90;71.50;;;;;;5006540;28;20155;-79
2023/03/01 10:21:11;;;;;;;0.00;0.00;;;8.60;73.00;;;;;;5005305;28;20014;-81
2023/03/01 10:23:39;;;;;;;0.00;0.00;;;8.30;74.80;;;;;;5006135;28;20438;-81
2023/03/01 10:26:33;;;;;;;0.00;0.00;;;8.30;75.10;;;;;;5023965;28;20080;-80
2023/03/01 10:29:12;;;;;;;0.70;0.70;;;8.40;75.90;;;;;;5022628;28;20022;-80
2023/03/01 10:31:42;;;;;;;0.10;0.10;;;7.90;77.40;;;;;;5018734;28;20025;-81
2023/03/01 10:34:14;;;;;;;0.00;0.00;;;8.10;78.00;;;;;;5012015;28;20014;-82
2023/03/01 10:36:42;;;;;;;0.00;0.00;;;8.60;77.70;;;;;;5006496;28;20036;-83
2023/03/01 10:39:17;;;;;;;0.00;0.00;;;8.60;76.20;;;;;;5024998;28;20013;-81
2023/03/01 10:41:56;;;;;;;0.43;0.30;;;9.40;74.90;;;;;;5000247;28;20051;-81
2023/03/01 10:44:44;;;;;;;0.55;0.52;;;10.10;72.90;;;;;;5002238;28;20022;-81
2023/03/01 10:47:23;;;;;;;0.05;0.05;;;11.60;68.30;;;;;;5002013;28;20072;-82
2023/03/01 10:50:05;;;;;;;0.00;0.00;;;11.70;66.10;;;;;;5000969;28;20025;-82
2023/03/01 10:56:03;;;;;;;0.00;0.00;;;11.30;65.90;;;;;;5055538;28;20005;-84
2023/03/01 10:59:00;;;;;;;0.00;0.00;;;11.50;64.40;;;;;;5034600;28;20028;-85
2023/03/01 11:01:35;;;;;;;0.03;0.03;;;10.80;66.20;;;;;;5029810;28;20334;-85
2023/03/01 11:04:07;;;;;;;0.00;0.00;;;11.20;66.00;;;;;;5039137;28;20272;-84
2023/03/01 11:06:42;;;;;;;0.10;0.10;;;11.30;66.20;;;;;;5055237;28;20029;-85
2023/03/01 11:11:44;;;;;;;0.00;0.00;;;10.70;66.30;;;;;;5681241;23;20057;-84
2023/03/01 11:17:31;;;;;;;0.00;0.00;;;10.40;67.50;;;;;;5093009;23;20253;-83
2023/03/01 11:20:13;;;;;;;0.00;0.00;;;10.20;68.10;;;;;;5027257;28;20056;-81
2023/03/01 11:22:56;;;;;;;0.00;0.00;;;10.70;67.20;;;;;;5022661;28;20482;-81
2023/03/01 11:25:45;;;;;;;0.05;0.05;;;10.10;68.60;;;;;;5005618;28;20056;-80
2023/03/01 11:28:16;;;;;;;0.80;0.40;;;9.70;69.70;;;;;;5007037;28;20691;-82
2023/03/01 11:30:50;;;;;;;0.00;0.00;;;9.70;70.50;;;;;;5005842;28;20025;-81
2023/03/01 11:33:33;;;;;;;0.32;0.32;;;9.20;72.10;;;;;;5005910;28;20075;-81
2023/03/01 11:36:16;;;;;;;0.00;0.00;;;9.10;73.00;;;;;;5019777;28;20017;-81
2023/03/01 11:38:50;;;;;;;0.00;0.00;;;9.10;74.20;;;;;;5006013;28;20457;-82
2023/03/01 11:41:29;;;;;;;0.00;0.00;;;9.10;74.20;;;;;;5000892;28;20630;-81
2023/03/01 11:44:14;;;;;;;0.75;0.75;;;9.30;74.50;;;;;;5005341;28;20032;-80
2023/03/01 11:47:34;;;;;;;0.10;0.10;;;9.20;74.80;;;;;;5000764;28;20025;-82
2023/03/01 11:50:15;;;;;;;0.00;0.00;;;8.80;77.40;;;;;;4978092;28;20108;-81
2023/03/01 11:53:23;;;;;;;0.00;0.00;;;8.70;79.30;;;;;;5004787;28;20040;-81
2023/03/01 11:56:27;;;;;;;0.52;0.52;;;8.60;79.40;;;;;;5021840;28;20091;-81
2023/03/01 11:59:40;;;;;;;0.00;0.00;;;8.30;80.50;;;;;;5004206;28;20144;-80
2023/03/01 12:02:32;;;;;;;0.20;0.20;;;8.50;82.30;;;;;;5003605;28;20838;-82
2023/03/01 12:05:06;;;;;;;0.00;0.00;;;9.00;80.30;;;;;;5003125;28;20017;-80
2023/03/01 12:08:14;;;;;;;0.00;0.00;;;8.80;80.80;;;;;;5005424;28;20017;-81
2023/03/01 12:11:05;;;;;;;0.00;0.00;;;8.50;80.90;;;;;;4960591;28;20046;-80
2023/03/01 12:17:05;;;;;;;0.00;0.00;;;8.00;84.80;;;;;;5023605;28;20123;-79
2023/03/01 12:20:14;;;;;;;0.00;0.00;;;7.90;86.80;;;;;;5002806;28;20076;-80
2023/03/01 12:23:06;;;;;;;0.00;0.00;;;7.90;87.70;;;;;;5004456;28;20036;-81
2023/03/01 12:25:37;;;;;;;0.00;0.00;;;7.90;89.40;;;;;;5004269;28;20029;-81
2023/03/01 12:28:13;;;;;;;0.00;0.00;;;8.00;89.70;;;;;;5009782;28;20656;-81
2023/03/01 12:30:49;;;;;;;0.00;0.00;;;8.20;89.10;;;;;;5010146;28;20459;-81
2023/03/01 12:33:43;;;;;;;0.20;0.20;;;8.40;88.80;;;;;;5008113;28;20036;-80
2023/03/01 12:36:30;;;;;;;0.52;0.40;;;8.50;87.60;;;;;;5009665;28;20230;-81
2023/03/01 12:39:14;;;;;;;0.20;0.20;;;8.80;87.40;;;;;;5006909;28;20024;-80
2023/03/01 12:42:09;;;;;;;0.00;0.00;;;9.10;85.60;;;;;;5026878;28;20029;-79
2023/03/01 12:44:35;;;;;;;0.15;0.15;;;9.00;85.60;;;;;;5007733;28;20049;-79
2023/03/01 12:47:39;;;;;;;0.00;0.00;;;8.60;86.60;;;;;;5009685;28;20490;-80
2023/03/01 12:50:16;;;;;;;0.20;0.20;;;8.90;87.80;;;;;;5007544;28;20491;-78
2023/03/01 12:52:56;;;;;;;0.00;0.00;;;9.10;87.70;;;;;;5008413;28;20025;-79
2023/03/01 12:55:39;;;;;;;0.00;0.00;;;9.40;89.50;;;;;;5020239;28;20021;-77
2023/03/01 12:58:11;;;;;;;0.38;0.38;;;9.80;89.20;;;;;;5008445;28;20021;-78
2023/03/01 13:00:59;;;;;;;0.00;0.00;;;9.60;84.40;;;;;;5012593;28;20029;-77
2023/03/01 13:03:56;;;;;;;0.10;0.10;;;9.60;85.90;;;;;;5026319;28;20018;-80
2023/03/01 13:06:42;;;;;;;0.00;0.00;;;9.20;86.30;;;;;;5007476;28;20063;-81
2023/03/01 13:09:25;;;;;;;0.80;0.55;;;8.90;88.50;;;;;;5025547;28;20037;-80
2023/03/01 13:11:51;;;;;;;0.00;0.00;;;8.50;90.00;;;;;;5008529;28;20021;-81
2023/03/01 13:14:23;;;;;;;0.00;0.00;;;8.40;91.10;;;;;;5027951;28;20495;-82
2023/03/01 13:16:54;;;;;;;0.55;0.20;;;8.60;91.10;;;;;;5011014;28;20025;-81
2023/03/01 13:19:36;;;;;;;0.00;0.00;;;8.60;90.70;;;;;;5016446;28;20034;-82
2023/03/01 13:22:29;;;;;;;0.00;0.00;;;8.80;91.10;;;;;;5017746;28;20044;-83
2023/03/01 13:25:30;;;;;;;0.38;0.38;;;9.10;90.60;;;;;;5009587;28;20022;-82
2023/03/01 13:28:41;;;;;;;0.00;0.00;;;9.10;90.00;;;;;;4930013;28;20067;-80
2023/03/01 13:31:29;;;;;;;0.00;0.00;;;8.80;91.30;;;;;;4944550;28;20035;-82
2023/03/01 13:33:56;;;;;;;;;;;8.90;91.50;;;;;;4943970;28;20031;-75
2023/03/01 13:36:32;;;;;;;0.08;0.08;;;9.10;91.70;;;;;;4995114;28;19947;-82
2023/03/01 13:39:22;;;;;;;0.00;0.00;;;9.20;91.80;;;;;;5008451;28;20033;-81
2023/03/01 13:41:57;;;;;;;0.00;0.00;;;9.20;91.90;;;;;;4994673;28;20394;-82
2023/03/01 13:44:30;;;;;;;0.00;0.00;;;9.20;91.80;;;;;;5009000;28;20414;-83
2023/03/01 13:47:17;;;;;;;0.80;0.43;;;9.00;91.40;;;;;;5006357;28;20475;-81